Time;durP1;ratioP1;P1;durP2;ratioP2;P2;SDS_P1;SDS_P2;PMS_P1;PMS_P2;Temp;Humidity;BMP_temperature;BMP_pressure;BME280_temperature;BME280_humidity;BME280_pressure;Samples;Min_cycle;Max_cycle;Signal;HPM_P1;HPM_P2
2023/01/05 00:01:15;;;;;;;25.20;11.55;;;;;;;;;;5012452;28;20157;-61
2023/01/05 00:03:41;;;;;;;28.08;10.68;;;;;;;;;;5011917;28;20033;-61
2023/01/05 00:06:12;;;;;;;25.25;10.38;;;;;;;;;;5012704;28;20661;-61
2023/01/05 00:08:39;;;;;;;27.20;10.73;;;;;;;;;;5012358;28;20021;-61
2023/01/05 00:22:29;;;;;;;25.77;10.90;;;;;;;;;;5013182;28;20032;-59
2023/01/05 00:24:55;;;;;;;25.52;11.35;;;;;;;;;;5012305;28;20026;-61
2023/01/05 00:27:21;;;;;;;32.95;12.23;;;;;;;;;;5012702;28;20026;-60
2023/01/05 00:29:47;;;;;;;24.48;12.32;;;;;;;;;;5011483;28;20100;-62
2023/01/05 00:32:13;;;;;;;27.40;10.10;;;;;;;;;;5012845;28;20466;-62
2023/01/05 00:34:39;;;;;;;25.55;11.43;;;;;;;;;;5011923;28;20029;-60
2023/01/05 00:37:05;;;;;;;29.85;13.15;;;;;;;;;;5011496;28;20037;-61
2023/01/05 00:39:31;;;;;;;25.15;10.65;;;;;;;;;;5011325;28;20501;-61
2023/01/05 00:41:58;;;;;;;21.38;9.35;;;;;;;;;;5012588;28;20068;-61
2023/01/05 00:44:24;;;;;;;23.48;10.27;;;;;;;;;;5010737;28;20018;-61
2023/01/05 00:46:50;;;;;;;29.42;11.45;;;;;;;;;;5011193;28;20033;-61
2023/01/05 00:49:16;;;;;;;26.80;11.40;;;;;;;;;;5012294;28;20034;-58
2023/01/05 00:51:42;;;;;;;26.98;11.02;;;;;;;;;;5011309;28;20117;-59
2023/01/05 00:54:08;;;;;;;27.00;10.38;;;;;;;;;;5011654;28;20029;-57
2023/01/05 00:56:34;;;;;;;28.75;11.27;;;;;;;;;;5012453;28;20108;-62
2023/01/05 00:59:00;;;;;;;33.03;12.73;;;;;;;;;;5012037;28;20047;-61
2023/01/05 01:01:26;;;;;;;37.22;11.25;;;;;;;;;;5010952;28;20030;-59
2023/01/05 01:03:52;;;;;;;24.45;9.98;;;;;;;;;;5010407;28;20076;-60
2023/01/05 01:06:18;;;;;;;28.60;11.10;;;;;;;;;;5010893;28;20484;-59
2023/01/05 01:08:44;;;;;;;26.92;9.90;;;;;;;;;;5010860;28;20036;-60
2023/01/05 01:11:10;;;;;;;25.52;10.07;;;;;;;;;;5012072;28;20544;-61
2023/01/05 01:13:40;;;;;;;29.15;10.07;;;;;;;;;;5011506;28;20079;-61
2023/01/05 01:16:06;;;;;;;29.80;10.15;;;;;;;;;;5012348;28;20478;-60
2023/01/05 01:18:33;;;;;;;23.95;10.52;;;;;;;;;;5010847;28;20122;-60
2023/01/05 01:20:59;;;;;;;30.65;10.23;;;;;;;;;;5010743;28;20033;-62
2023/01/05 01:23:25;;;;;;;25.35;9.55;;;;;;;;;;5011192;28;20069;-60
2023/01/05 01:25:51;;;;;;;33.35;12.13;;;;;;;;;;5011918;28;20487;-62
2023/01/05 01:28:17;;;;;;;33.28;11.68;;;;;;;;;;5011819;28;20037;-61
2023/01/05 01:30:43;;;;;;;29.27;13.13;;;;;;;;;;5011838;28;20494;-61
2023/01/05 01:33:09;;;;;;;21.25;9.82;;;;;;;;;;5011189;28;20029;-58
2023/01/05 01:35:38;;;;;;;23.90;10.30;;;;;;;;;;5011938;28;20026;-62
2023/01/05 01:38:04;;;;;;;25.02;10.40;;;;;;;;;;5011690;28;20113;-61
2023/01/05 01:40:30;;;;;;;29.90;9.88;;;;;;;;;;5010526;28;20029;-60
2023/01/05 01:42:56;;;;;;;31.83;11.35;;;;;;;;;;5010305;28;20491;-56
2023/01/05 01:45:24;;;;;;;29.10;11.30;;;;;;;;;;5010009;28;20080;-57
2023/01/05 01:47:50;;;;;;;25.37;11.17;;;;;;;;;;5010380;28;20030;-60
2023/01/05 01:50:34;;;;;;;28.05;11.15;;;;;;;;;;5010415;28;20037;-59
2023/01/05 01:53:04;;;;;;;31.77;12.02;;;;;;;;;;5010327;28;20026;-60
2023/01/05 01:55:31;;;;;;;27.05;10.13;;;;;;;;;;5011705;28;20022;-60
2023/01/05 01:57:58;;;;;;;26.40;10.52;;;;;;;;;;5011474;28;20022;-60
2023/01/05 02:00:24;;;;;;;27.20;10.88;;;;;;;;;;5010419;28;20037;-60
2023/01/05 02:02:52;;;;;;;29.25;12.52;;;;;;;;;;5010368;28;20030;-60
2023/01/05 02:05:19;;;;;;;30.48;10.18;;;;;;;;;;5010560;28;20022;-60
2023/01/05 02:07:46;;;;;;;32.05;13.30;;;;;;;;;;5011645;28;20034;-60
2023/01/05 02:10:13;;;;;;;36.20;12.32;;;;;;;;;;5010399;28;20437;-61
2023/01/05 02:12:58;;;;;;;27.00;9.75;;;;;;;;;;5011584;28;20018;-60
2023/01/05 02:15:31;;;;;;;29.40;11.90;;;;;;;;;;5011044;28;20024;-60
2023/01/05 02:18:05;;;;;;;25.58;10.48;;;;;;;;;;5013456;28;20507;-60
2023/01/05 02:20:34;;;;;;;28.80;11.45;;;;;;;;;;5015227;28;20367;-60
2023/01/05 02:23:06;;;;;;;21.67;10.68;;;;;;;;;;5013740;28;20025;-61
2023/01/05 02:25:51;;;;;;;25.60;10.48;;;;;;;;;;5013881;28;20026;-60
2023/01/05 02:28:23;;;;;;;31.20;9.52;;;;;;;;;;5015638;28;20030;-60
2023/01/05 02:31:08;;;;;;;29.48;10.43;;;;;;;;;;5012126;28;20030;-58
2023/01/05 02:33:40;;;;;;;29.77;10.52;;;;;;;;;;5014199;28;20025;-58
2023/01/05 02:36:06;;;;;;;29.33;11.60;;;;;;;;;;5014879;28;20387;-60
2023/01/05 02:39:07;;;;;;;26.75;11.05;;;;;;;;;;5014679;28;20026;-60
2023/01/05 02:41:56;;;;;;;35.13;13.88;;;;;;;;;;4935048;29;20032;-58
2023/01/05 02:44:22;;;;;;;29.25;11.85;;;;;;;;;;5000273;28;20045;-60
2023/01/05 02:47:04;;;;;;;29.73;11.05;;;;;;;;;;5013539;28;20026;-61
2023/01/05 02:49:32;;;;;;;35.08;12.35;;;;;;;;;;5013401;28;20102;-60
2023/01/05 02:51:59;;;;;;;25.40;9.95;;;;;;;;;;5014578;28;20068;-60
2023/01/05 02:54:29;;;;;;;24.02;10.35;;;;;;;;;;5013753;28;20390;-61
2023/01/05 02:56:58;;;;;;;29.05;11.45;;;;;;;;;;5013180;28;20390;-60
2023/01/05 02:59:27;;;;;;;34.33;13.80;;;;;;;;;;5014349;28;20402;-63
2023/01/05 03:01:59;;;;;;;30.45;11.10;;;;;;;;;;5013197;28;20167;-61
2023/01/05 03:04:28;;;;;;;23.52;11.15;;;;;;;;;;5013679;28;20513;-60
2023/01/05 03:06:56;;;;;;;26.23;10.32;;;;;;;;;;5014331;28;20079;-60
2023/01/05 03:09:25;;;;;;;30.45;10.93;;;;;;;;;;5012875;28;20123;-60
2023/01/05 03:14:47;;;;;;;24.58;10.38;;;;;;;;;;5013426;28;20395;-61
2023/01/05 03:17:15;;;;;;;24.98;10.57;;;;;;;;;;5013016;28;20056;-60
2023/01/05 03:19:43;;;;;;;26.20;10.67;;;;;;;;;;5014078;28;20025;-61
2023/01/05 03:36:23;;;;;;;28.25;11.30;;;;;;;;;;5014042;28;20041;-62
2023/01/05 03:38:50;;;;;;;26.05;9.90;;;;;;;;;;5013562;28;20091;-62
2023/01/05 03:41:17;;;;;;;25.38;11.32;;;;;;;;;;5013742;28;20430;-61
2023/01/05 03:43:43;;;;;;;26.50;10.15;;;;;;;;;;5012753;28;20022;-61
2023/01/05 03:46:11;;;;;;;31.25;12.60;;;;;;;;;;5012345;28;20065;-61
2023/01/05 03:48:37;;;;;;;24.95;10.70;;;;;;;;;;5012343;28;20030;-62
2023/01/05 03:51:03;;;;;;;26.45;11.02;;;;;;;;;;5013480;28;20056;-59
2023/01/05 03:53:29;;;;;;;31.23;11.52;;;;;;;;;;5012757;28;20026;-60
2023/01/05 03:55:55;;;;;;;28.80;10.70;;;;;;;;;;5013406;28;20026;-59
2023/01/05 03:58:21;;;;;;;29.63;12.23;;;;;;;;;;5013097;28;20181;-60
2023/01/05 04:00:47;;;;;;;25.60;10.98;;;;;;;;;;5013398;28;20076;-60
2023/01/05 04:03:13;;;;;;;29.90;11.95;;;;;;;;;;5011200;28;20029;-61
2023/01/05 04:05:39;;;;;;;32.65;12.88;;;;;;;;;;5012243;28;20052;-61
2023/01/05 04:08:05;;;;;;;27.20;12.20;;;;;;;;;;5013086;28;20029;-60
2023/01/05 04:10:31;;;;;;;30.27;12.43;;;;;;;;;;5013149;28;20022;-60
2023/01/05 04:12:57;;;;;;;31.55;11.38;;;;;;;;;;5012902;28;20021;-59
2023/01/05 04:15:23;;;;;;;31.38;12.75;;;;;;;;;;5012485;28;20395;-58
2023/01/05 04:17:49;;;;;;;26.52;11.40;;;;;;;;;;5012936;28;20100;-61
2023/01/05 04:20:15;;;;;;;23.75;11.73;;;;;;;;;;5011683;28;20069;-60
2023/01/05 04:22:41;;;;;;;29.45;12.43;;;;;;;;;;5012959;28;20076;-60
2023/01/05 04:25:07;;;;;;;26.77;12.45;;;;;;;;;;5012377;28;20061;-60
2023/01/05 04:27:33;;;;;;;32.25;14.43;;;;;;;;;;5013485;28;20054;-61
2023/01/05 04:29:59;;;;;;;34.75;12.82;;;;;;;;;;5011900;28;20300;-59
2023/01/05 04:32:25;;;;;;;28.77;12.43;;;;;;;;;;5012374;28;20021;-60
2023/01/05 04:34:51;;;;;;;30.30;14.02;;;;;;;;;;5011793;28;20096;-59
2023/01/05 04:37:17;;;;;;;30.48;13.43;;;;;;;;;;5012573;28;20022;-58
2023/01/05 04:39:43;;;;;;;29.17;14.65;;;;;;;;;;5012348;28;20057;-60
2023/01/05 04:42:09;;;;;;;34.95;15.93;;;;;;;;;;5012576;28;20025;-56
2023/01/05 04:44:35;;;;;;;33.10;18.58;;;;;;;;;;5010778;28;20057;-60
2023/01/05 04:47:01;;;;;;;34.53;22.23;;;;;;;;;;5011394;28;20026;-61
2023/01/05 04:49:27;;;;;;;37.38;21.98;;;;;;;;;;5012268;28;20498;-60
2023/01/05 04:51:53;;;;;;;41.22;25.00;;;;;;;;;;5011033;28;20124;-61
2023/01/05 04:54:19;;;;;;;32.08;24.60;;;;;;;;;;5010405;28;20030;-60
2023/01/05 04:56:45;;;;;;;40.75;26.42;;;;;;;;;;5012576;28;20390;-58
2023/01/05 04:59:11;;;;;;;41.33;27.33;;;;;;;;;;5012369;28;20030;-58
2023/01/05 05:01:37;;;;;;;35.55;31.52;;;;;;;;;;5012330;28;20029;-60
2023/01/05 05:04:03;;;;;;;42.63;31.33;;;;;;;;;;5011617;28;20032;-61
2023/01/05 05:06:29;;;;;;;38.25;34.45;;;;;;;;;;5010855;28;20086;-60
2023/01/05 05:08:55;;;;;;;48.65;38.22;;;;;;;;;;5011880;28;20021;-59
2023/01/05 05:11:21;;;;;;;47.75;42.50;;;;;;;;;;5011984;28;20032;-57
2023/01/05 05:13:47;;;;;;;44.15;38.25;;;;;;;;;;5010033;28;20024;-58
2023/01/05 05:16:13;;;;;;;49.97;44.17;;;;;;;;;;5012112;28;20390;-60
2023/01/05 05:18:39;;;;;;;51.42;41.50;;;;;;;;;;5010618;28;20032;-57
2023/01/05 05:21:05;;;;;;;44.47;40.17;;;;;;;;;;5012019;28;20025;-59
2023/01/05 05:23:31;;;;;;;44.03;39.58;;;;;;;;;;5010105;28;20113;-58
2023/01/05 05:25:57;;;;;;;41.83;37.42;;;;;;;;;;5012087;28;20060;-60
2023/01/05 05:28:26;;;;;;;39.78;35.47;;;;;;;;;;5011708;28;20026;-58
2023/01/05 05:30:52;;;;;;;40.47;31.90;;;;;;;;;;5010639;28;20041;-59
2023/01/05 05:33:18;;;;;;;38.42;29.33;;;;;;;;;;5011087;28;20065;-56
2023/01/05 05:35:44;;;;;;;43.20;29.00;;;;;;;;;;5011888;28;20029;-58
2023/01/05 05:38:10;;;;;;;38.90;29.80;;;;;;;;;;5010742;28;20033;-61
2023/01/05 05:40:36;;;;;;;36.10;26.83;;;;;;;;;;5011891;28;20442;-60
2023/01/05 05:43:02;;;;;;;41.38;26.77;;;;;;;;;;5010999;28;20057;-59
2023/01/05 05:45:28;;;;;;;36.53;26.73;;;;;;;;;;5011673;28;20394;-61
2023/01/05 05:47:54;;;;;;;36.35;24.92;;;;;;;;;;5010286;28;20036;-60
2023/01/05 05:50:20;;;;;;;33.70;26.05;;;;;;;;;;5011402;28;20708;-60
2023/01/05 05:52:46;;;;;;;33.17;25.73;;;;;;;;;;5013380;28;20061;-60
2023/01/05 05:55:12;;;;;;;31.52;26.02;;;;;;;;;;5013750;28;20390;-58
2023/01/05 05:57:38;;;;;;;38.28;26.02;;;;;;;;;;5015466;28;20018;-61
2023/01/05 06:00:05;;;;;;;36.97;28.35;;;;;;;;;;5041418;23;20093;-66
2023/01/05 06:02:31;;;;;;;41.90;29.58;;;;;;;;;;5034089;28;20111;-64
2023/01/05 06:04:56;;;;;;;36.58;26.90;;;;;;;;;;5033606;28;20026;-65
2023/01/05 06:07:22;;;;;;;32.65;25.75;;;;;;;;;;5049347;28;20060;-65
2023/01/05 06:09:48;;;;;;;35.00;25.33;;;;;;;;;;5048952;28;20089;-65
2023/01/05 06:12:14;;;;;;;34.95;26.10;;;;;;;;;;5034071;28;20481;-65
2023/01/05 06:14:40;;;;;;;33.47;26.70;;;;;;;;;;5033178;28;20029;-64
2023/01/05 06:17:06;;;;;;;41.22;27.33;;;;;;;;;;5033603;28;20026;-65
2023/01/05 06:19:32;;;;;;;28.05;25.02;;;;;;;;;;5034258;28;20462;-66
2023/01/05 06:21:58;;;;;;;37.10;25.55;;;;;;;;;;5033945;28;20021;-65
2023/01/05 06:24:24;;;;;;;38.47;27.48;;;;;;;;;;5032996;28;20489;-65
2023/01/05 06:26:50;;;;;;;33.85;27.17;;;;;;;;;;5048979;28;20087;-65
2023/01/05 06:29:16;;;;;;;34.22;24.77;;;;;;;;;;5033712;28;20021;-66
2023/01/05 06:31:42;;;;;;;38.00;26.10;;;;;;;;;;5033341;28;20021;-64
2023/01/05 06:34:08;;;;;;;47.30;27.70;;;;;;;;;;5032907;28;20486;-65
2023/01/05 06:36:34;;;;;;;38.50;24.92;;;;;;;;;;5033503;28;20029;-65
2023/01/05 06:39:00;;;;;;;36.60;25.00;;;;;;;;;;5033352;28;20067;-65
2023/01/05 06:41:26;;;;;;;36.58;23.48;;;;;;;;;;5033132;28;20064;-65
2023/01/05 06:43:52;;;;;;;30.85;23.77;;;;;;;;;;5032473;28;20032;-65
2023/01/05 06:46:18;;;;;;;46.00;23.73;;;;;;;;;;5033140;28;20023;-65
2023/01/05 06:48:44;;;;;;;36.55;23.05;;;;;;;;;;5033197;28;20109;-65
2023/01/05 06:51:10;;;;;;;36.95;22.60;;;;;;;;;;5033186;28;20029;-65
2023/01/05 06:53:36;;;;;;;46.55;22.50;;;;;;;;;;5032438;28;20017;-65
2023/01/05 06:56:02;;;;;;;41.40;22.98;;;;;;;;;;5048528;28;20092;-65
2023/01/05 06:58:28;;;;;;;37.22;21.25;;;;;;;;;;5032658;28;20013;-64
2023/01/05 07:00:54;;;;;;;37.92;21.45;;;;;;;;;;5033004;28;20496;-65
2023/01/05 07:03:22;;;;;;;27.00;19.33;;;;;;;;;;5047197;28;20033;-64
2023/01/05 07:05:48;;;;;;;33.20;21.33;;;;;;;;;;5032465;28;20502;-66
2023/01/05 07:08:14;;;;;;;34.25;21.45;;;;;;;;;;5032792;28;20030;-65
2023/01/05 07:10:40;;;;;;;33.10;20.10;;;;;;;;;;5032652;28;20029;-66
2023/01/05 07:13:06;;;;;;;31.63;19.90;;;;;;;;;;5032656;28;20100;-66
2023/01/05 07:15:32;;;;;;;29.48;18.23;;;;;;;;;;5032604;28;20037;-66
2023/01/05 07:17:58;;;;;;;39.33;20.67;;;;;;;;;;5032619;28;20021;-66
2023/01/05 07:20:24;;;;;;;32.42;19.63;;;;;;;;;;5032334;28;20037;-66
2023/01/05 07:22:50;;;;;;;34.83;20.17;;;;;;;;;;5032548;28;20080;-66
2023/01/05 07:25:16;;;;;;;33.25;19.58;;;;;;;;;;5031681;28;20038;-65
2023/01/05 07:27:42;;;;;;;31.10;18.27;;;;;;;;;;5032948;28;20033;-64
2023/01/05 07:30:08;;;;;;;32.53;18.70;;;;;;;;;;5032773;28;20436;-66
2023/01/05 07:32:35;;;;;;;48.67;18.77;;;;;;;;;;5048004;28;20087;-66
2023/01/05 07:35:01;;;;;;;32.63;16.30;;;;;;;;;;5032036;28;20116;-66
2023/01/05 07:37:27;;;;;;;28.02;14.80;;;;;;;;;;5032779;28;20128;-64
2023/01/05 07:39:53;;;;;;;40.00;18.17;;;;;;;;;;5032139;28;20212;-65
2023/01/05 07:42:19;;;;;;;30.45;15.18;;;;;;;;;;5032837;28;20500;-65
2023/01/05 07:44:45;;;;;;;34.53;16.75;;;;;;;;;;5031913;28;20112;-65
2023/01/05 07:47:11;;;;;;;33.03;16.73;;;;;;;;;;5032659;28;20036;-64
2023/01/05 07:49:37;;;;;;;30.15;15.57;;;;;;;;;;5032357;28;20021;-65
2023/01/05 07:52:03;;;;;;;32.03;14.88;;;;;;;;;;5030704;28;20087;-64
2023/01/05 07:54:29;;;;;;;28.05;14.75;;;;;;;;;;5025621;28;20029;-64
2023/01/05 07:56:55;;;;;;;25.77;13.27;;;;;;;;;;5031304;28;20025;-65
2023/01/05 07:59:21;;;;;;;34.35;15.25;;;;;;;;;;5032002;28;20029;-65
2023/01/05 08:01:48;;;;;;;25.27;14.52;;;;;;;;;;5021518;28;20079;-65
2023/01/05 08:04:13;;;;;;;29.77;15.52;;;;;;;;;;5011662;28;20041;-65
2023/01/05 08:06:39;;;;;;;28.00;16.17;;;;;;;;;;5012054;28;20434;-64
2023/01/05 08:11:50;;;;;;;27.90;14.90;;;;;;;;;;5031863;28;20044;-67
2023/01/05 08:14:16;;;;;;;28.58;13.30;;;;;;;;;;5031143;28;20093;-62
2023/01/05 08:16:42;;;;;;;31.98;16.17;;;;;;;;;;5031422;28;20108;-62
2023/01/05 08:19:09;;;;;;;31.00;16.02;;;;;;;;;;5031162;28;20025;-62
2023/01/05 08:21:35;;;;;;;38.45;15.52;;;;;;;;;;5031762;28;20059;-62
2023/01/05 08:24:01;;;;;;;31.58;16.58;;;;;;;;;;5031115;28;20454;-58
2023/01/05 08:26:27;;;;;;;36.83;17.35;;;;;;;;;;5028425;28;20026;-62
2023/01/05 08:28:53;;;;;;;31.88;15.68;;;;;;;;;;5010230;28;20034;-62
2023/01/05 08:31:24;;;;;;;33.67;17.73;;;;;;;;;;5011620;28;20466;-62
2023/01/05 08:33:51;;;;;;;30.48;15.35;;;;;;;;;;5009816;28;20026;-62
2023/01/05 08:36:21;;;;;;;34.28;15.57;;;;;;;;;;5010690;28;20462;-62
2023/01/05 08:38:47;;;;;;;29.13;16.88;;;;;;;;;;5010312;28;20044;-62
2023/01/05 08:41:21;;;;;;;37.95;16.05;;;;;;;;;;5011972;28;20496;-63
2023/01/05 08:43:51;;;;;;;30.50;14.48;;;;;;;;;;5010739;28;20428;-63
2023/01/05 08:46:17;;;;;;;28.13;13.38;;;;;;;;;;5017458;28;20029;-62
2023/01/05 08:48:43;;;;;;;37.97;15.43;;;;;;;;;;5024996;28;20022;-62
2023/01/05 08:51:09;;;;;;;26.55;14.13;;;;;;;;;;5011571;28;20026;-62
2023/01/05 08:53:35;;;;;;;26.17;13.35;;;;;;;;;;5018542;28;20029;-62
2023/01/05 08:56:02;;;;;;;26.75;13.40;;;;;;;;;;5030307;28;20025;-55
2023/01/05 08:58:28;;;;;;;31.00;14.63;;;;;;;;;;5031717;28;20026;-61
2023/01/05 09:00:54;;;;;;;28.08;15.52;;;;;;;;;;5029668;28;20076;-61
2023/01/05 09:03:20;;;;;;;35.47;16.35;;;;;;;;;;5028870;28;20025;-64
2023/01/05 09:05:46;;;;;;;28.13;15.32;;;;;;;;;;5030629;28;20029;-63
2023/01/05 09:08:12;;;;;;;31.90;14.95;;;;;;;;;;5031742;28;20017;-65
2023/01/05 09:10:38;;;;;;;32.15;14.40;;;;;;;;;;5031439;28;20033;-64
2023/01/05 09:13:04;;;;;;;35.08;16.98;;;;;;;;;;5030720;28;20033;-63
2023/01/05 09:15:30;;;;;;;30.13;14.10;;;;;;;;;;5030299;28;20026;-62
2023/01/05 09:17:56;;;;;;;27.98;14.90;;;;;;;;;;5030324;28;20070;-63
2023/01/05 09:20:23;;;;;;;28.27;14.45;;;;;;;;;;5029778;28;20032;-64
2023/01/05 09:22:49;;;;;;;31.60;13.52;;;;;;;;;;5030854;28;20026;-65
2023/01/05 09:25:15;;;;;;;23.98;13.02;;;;;;;;;;5030206;28;20365;-64
2023/01/05 09:27:41;;;;;;;27.75;13.43;;;;;;;;;;5029689;28;20028;-61
2023/01/05 09:30:08;;;;;;;27.30;13.43;;;;;;;;;;5028101;28;20452;-66
2023/01/05 09:32:36;;;;;;;28.27;13.88;;;;;;;;;;5030653;28;20389;-65
2023/01/05 09:35:02;;;;;;;34.45;13.65;;;;;;;;;;5030103;28;20049;-65
2023/01/05 09:37:28;;;;;;;24.20;13.60;;;;;;;;;;5030784;28;20025;-61
2023/01/05 09:39:54;;;;;;;33.08;14.55;;;;;;;;;;5030582;28;20397;-65
2023/01/05 09:42:22;;;;;;;30.83;14.73;;;;;;;;;;5030997;28;20030;-64
2023/01/05 09:44:50;;;;;;;27.17;14.73;;;;;;;;;;5029820;28;20105;-62
2023/01/05 09:47:18;;;;;;;37.50;15.95;;;;;;;;;;5030717;28;20095;-63
2023/01/05 09:49:48;;;;;;;29.92;12.60;;;;;;;;;;5030092;28;20033;-65
2023/01/05 09:52:14;;;;;;;27.48;13.50;;;;;;;;;;5030734;28;20032;-64
2023/01/05 09:54:40;;;;;;;32.75;13.10;;;;;;;;;;5029558;28;20030;-63
2023/01/05 09:57:18;;;;;;;29.92;14.05;;;;;;;;;;5030483;28;20026;-62
2023/01/05 09:59:47;;;;;;;31.30;14.10;;;;;;;;;;5030293;28;20079;-62
2023/01/05 10:02:13;;;;;;;34.53;14.70;;;;;;;;;;5030463;28;20021;-61
2023/01/05 10:04:40;;;;;;;39.75;15.55;;;;;;;;;;5028884;28;20339;-68
2023/01/05 10:07:08;;;;;;;25.42;13.52;;;;;;;;;;5030366;28;20022;-64
2023/01/05 10:09:38;;;;;;;27.97;14.90;;;;;;;;;;5030296;28;20060;-65
2023/01/05 10:14:59;;;;;;;33.97;14.55;;;;;;;;;;5029019;28;20087;-67
2023/01/05 10:17:26;;;;;;;40.55;16.25;;;;;;;;;;5030108;28;20063;-65
2023/01/05 10:19:53;;;;;;;27.50;13.85;;;;;;;;;;5030214;28;20049;-64
2023/01/05 10:22:19;;;;;;;27.58;12.70;;;;;;;;;;5030274;28;20026;-65
2023/01/05 10:24:45;;;;;;;28.83;13.63;;;;;;;;;;5029668;28;20563;-63
2023/01/05 10:27:34;;;;;;;34.63;13.32;;;;;;;;;;5030337;28;20102;-66
2023/01/05 10:30:10;;;;;;;41.35;15.13;;;;;;;;;;5001590;28;20041;-62
2023/01/05 10:32:54;;;;;;;37.95;14.35;;;;;;;;;;5029869;28;20022;-60
2023/01/05 10:35:20;;;;;;;34.30;14.93;;;;;;;;;;5029506;28;20104;-64
2023/01/05 10:37:46;;;;;;;32.20;12.43;;;;;;;;;;5030259;28;20061;-64
2023/01/05 10:40:23;;;;;;;30.98;12.32;;;;;;;;;;5033541;28;20037;-70
2023/01/05 10:42:52;;;;;;;30.37;13.00;;;;;;;;;;4678919;28;10000255;-68
2023/01/05 10:45:20;;;;;;;27.88;11.75;;;;;;;;;;4678603;28;10000351;-65
2023/01/05 10:47:46;;;;;;;28.90;12.05;;;;;;;;;;5030465;28;20436;-66
2023/01/05 10:50:27;;;;;;;30.00;12.90;;;;;;;;;;5030270;28;20029;-64
2023/01/05 10:52:53;;;;;;;26.70;12.82;;;;;;;;;;5027654;28;20056;-62
2023/01/05 10:55:19;;;;;;;40.38;14.05;;;;;;;;;;5023098;28;20017;-65
2023/01/05 10:57:46;;;;;;;33.45;13.60;;;;;;;;;;5029747;28;20057;-63
2023/01/05 11:00:12;;;;;;;24.95;12.05;;;;;;;;;;5030331;28;20052;-61
2023/01/05 11:02:40;;;;;;;31.77;13.98;;;;;;;;;;5017408;28;20383;-63
2023/01/05 11:05:09;;;;;;;34.47;13.40;;;;;;;;;;5011260;28;20030;-64
2023/01/05 11:07:52;;;;;;;30.15;13.32;;;;;;;;;;5030386;28;20064;-66
2023/01/05 11:10:29;;;;;;;32.88;12.80;;;;;;;;;;5029668;28;20524;-61
2023/01/05 11:13:01;;;;;;;30.83;12.65;;;;;;;;;;5030219;28;20064;-62
2023/01/05 11:15:28;;;;;;;30.50;11.75;;;;;;;;;;5028851;28;20106;-61
2023/01/05 11:17:54;;;;;;;32.05;13.10;;;;;;;;;;5030316;28;20029;-65
2023/01/05 11:20:21;;;;;;;27.23;11.55;;;;;;;;;;5011802;28;20528;-67
2023/01/05 11:22:48;;;;;;;34.00;13.00;;;;;;;;;;5010102;28;20040;-64
2023/01/05 11:25:32;;;;;;;33.50;13.27;;;;;;;;;;5009708;28;20100;-64
2023/01/05 11:28:05;;;;;;;31.83;11.95;;;;;;;;;;5010078;28;20036;-64
2023/01/05 11:30:32;;;;;;;32.92;11.95;;;;;;;;;;5009689;28;20620;-64
2023/01/05 11:33:00;;;;;;;37.78;13.20;;;;;;;;;;5008247;28;20113;-62
2023/01/05 11:35:36;;;;;;;37.15;12.38;;;;;;;;;;5010023;28;20022;-63
2023/01/05 11:38:02;;;;;;;33.00;12.65;;;;;;;;;;5009824;28;20029;-65
2023/01/05 11:40:29;;;;;;;33.95;12.93;;;;;;;;;;5009339;28;20037;-64
2023/01/05 11:42:55;;;;;;;29.15;13.88;;;;;;;;;;5009192;28;20029;-66
2023/01/05 11:45:23;;;;;;;31.55;14.85;;;;;;;;;;5015224;28;20025;-66
2023/01/05 11:47:52;;;;;;;30.00;11.55;;;;;;;;;;5043738;28;20105;-64
2023/01/05 11:50:20;;;;;;;32.88;12.68;;;;;;;;;;5048333;28;20033;-65
2023/01/05 11:52:49;;;;;;;31.50;11.88;;;;;;;;;;5051712;28;20025;-64
2023/01/05 11:55:20;;;;;;;26.20;10.60;;;;;;;;;;5037311;28;20420;-64
2023/01/05 11:57:47;;;;;;;24.50;10.50;;;;;;;;;;4679616;28;10000427;-62
2023/01/05 12:00:27;;;;;;;33.88;10.60;;;;;;;;;;5044589;23;20510;-65
2023/01/05 12:02:53;;;;;;;27.58;13.98;;;;;;;;;;5046488;28;20029;-65
2023/01/05 12:05:31;;;;;;;27.60;12.57;;;;;;;;;;5047060;28;20439;-65
2023/01/05 12:08:10;;;;;;;31.95;13.55;;;;;;;;;;5047976;28;20022;-64
2023/01/05 12:10:35;;;;;;;;;;;;;;;;;;5033116;28;20063;-65
2023/01/05 12:13:01;;;;;;;25.92;11.15;;;;;;;;;;5030617;28;20357;-64
2023/01/05 12:15:44;;;;;;;29.85;11.63;;;;;;;;;;5030924;28;20037;-65
2023/01/05 12:18:24;;;;;;;30.45;11.90;;;;;;;;;;5032335;28;20025;-64
2023/01/05 12:21:06;;;;;;;35.30;11.55;;;;;;;;;;5030921;28;20136;-64
2023/01/05 12:23:44;;;;;;;32.42;11.73;;;;;;;;;;5031278;28;20552;-64
2023/01/05 12:26:17;;;;;;;25.52;11.95;;;;;;;;;;5030809;28;20644;-64
2023/01/05 12:28:43;;;;;;;29.52;12.15;;;;;;;;;;4679926;28;10000219;-64
2023/01/05 12:31:12;;;;;;;31.80;11.52;;;;;;;;;;5027478;28;20034;-64
2023/01/05 12:33:53;;;;;;;24.85;10.82;;;;;;;;;;5026866;28;20052;-64
2023/01/05 12:36:21;;;;;;;27.33;11.35;;;;;;;;;;5029200;28;20472;-65
2023/01/05 12:39:02;;;;;;;29.52;12.13;;;;;;;;;;5030759;28;20544;-66
2023/01/05 12:41:35;;;;;;;24.95;11.43;;;;;;;;;;5031174;28;20048;-65
2023/01/05 12:44:04;;;;;;;32.80;12.13;;;;;;;;;;5030752;28;20065;-62
2023/01/05 12:46:30;;;;;;;33.90;12.02;;;;;;;;;;4680555;28;10000943;-65
2023/01/05 12:48:59;;;;;;;25.90;11.70;;;;;;;;;;5027596;28;20068;-63
2023/01/05 12:51:29;;;;;;;25.17;11.30;;;;;;;;;;5028819;28;20083;-64
2023/01/05 12:54:01;;;;;;;25.30;9.57;;;;;;;;;;5028157;28;20021;-62
2023/01/05 12:56:29;;;;;;;26.50;10.68;;;;;;;;;;5027416;28;20029;-63
2023/01/05 12:58:55;;;;;;;;;;;;;;;;;;5028674;28;20681;-63
2023/01/05 13:01:24;;;;;;;31.80;11.32;;;;;;;;;;5028271;28;19920;-62
2023/01/05 13:04:00;;;;;;;28.52;12.60;;;;;;;;;;5027640;28;20493;-64
2023/01/05 13:06:26;;;;;;;24.35;11.93;;;;;;;;;;5027041;28;20034;-63
2023/01/05 13:08:54;;;;;;;25.08;10.90;;;;;;;;;;5029121;28;20036;-64
2023/01/05 13:11:29;;;;;;;24.08;10.38;;;;;;;;;;5027017;28;20497;-69
2023/01/05 13:13:57;;;;;;;31.38;11.85;;;;;;;;;;5023825;28;20075;-61
2023/01/05 13:16:24;;;;;;;;;;;;;;;;;;5032085;28;20021;-64
2023/01/05 13:18:54;;;;;;;31.45;11.88;;;;;;;;;;5035748;28;20346;-64
2023/01/05 13:21:22;;;;;;;32.33;12.70;;;;;;;;;;5034265;28;20033;-64
2023/01/05 13:23:50;;;;;;;31.40;11.63;;;;;;;;;;5030841;28;20133;-64
2023/01/05 13:26:17;;;;;;;29.67;11.50;;;;;;;;;;5031060;28;20025;-63
2023/01/05 13:28:46;;;;;;;26.58;11.80;;;;;;;;;;5026398;28;20568;-63
2023/01/05 13:31:12;;;;;;;31.23;12.73;;;;;;;;;;5030753;28;20025;-64
2023/01/05 13:33:56;;;;;;;24.33;11.68;;;;;;;;;;5030133;28;20018;-64
2023/01/05 13:36:31;;;;;;;26.90;11.80;;;;;;;;;;5030462;28;20021;-64
2023/01/05 13:39:03;;;;;;;27.65;12.13;;;;;;;;;;5029627;28;20037;-63
2023/01/05 13:41:37;;;;;;;23.63;10.50;;;;;;;;;;5030898;28;20025;-63
2023/01/05 13:44:07;;;;;;;28.98;10.93;;;;;;;;;;5028906;28;20033;-64
2023/01/05 13:46:45;;;;;;;27.63;10.90;;;;;;;;;;5030288;28;20452;-65
2023/01/05 13:49:32;;;;;;;34.22;12.60;;;;;;;;;;5029064;28;20034;-63
2023/01/05 13:52:00;;;;;;;29.27;12.10;;;;;;;;;;5009811;28;20761;-67
2023/01/05 13:54:46;;;;;;;27.73;11.75;;;;;;;;;;5030592;28;20072;-64
2023/01/05 13:57:15;;;;;;;24.67;10.95;;;;;;;;;;5030544;28;20036;-63
2023/01/05 13:59:42;;;;;;;30.10;11.55;;;;;;;;;;5030594;28;20038;-64
2023/01/05 14:02:29;;;;;;;32.08;12.90;;;;;;;;;;5031127;28;20393;-65
2023/01/05 14:04:55;;;;;;;27.67;11.88;;;;;;;;;;5030085;28;20142;-64
2023/01/05 14:07:21;;;;;;;30.48;10.93;;;;;;;;;;5030431;28;20041;-64
2023/01/05 14:09:49;;;;;;;33.45;11.35;;;;;;;;;;5030463;28;20040;-64
2023/01/05 14:12:15;;;;;;;31.85;11.20;;;;;;;;;;5030543;28;20025;-66
2023/01/05 14:14:58;;;;;;;33.53;12.52;;;;;;;;;;5032842;28;20482;-65
2023/01/05 14:17:42;;;;;;;31.50;12.70;;;;;;;;;;5032629;28;20031;-64
2023/01/05 14:20:29;;;;;;;28.58;11.82;;;;;;;;;;5033140;28;20070;-64
2023/01/05 14:22:55;;;;;;;31.08;12.23;;;;;;;;;;5034221;28;20029;-63
2023/01/05 14:25:40;;;;;;;27.23;11.73;;;;;;;;;;5032287;28;20561;-65
2023/01/05 14:28:23;;;;;;;28.10;11.82;;;;;;;;;;5032500;28;20060;-65
2023/01/05 14:30:50;;;;;;;24.00;10.98;;;;;;;;;;5034057;28;20032;-66
2023/01/05 14:33:18;;;;;;;30.83;12.07;;;;;;;;;;5033226;28;20049;-65
2023/01/05 14:35:44;;;;;;;28.58;12.88;;;;;;;;;;5034165;28;20022;-65
2023/01/05 14:38:13;;;;;;;26.63;12.43;;;;;;;;;;5033723;28;20104;-64
2023/01/05 14:40:41;;;;;;;24.67;12.77;;;;;;;;;;5032409;28;20234;-66
2023/01/05 14:43:20;;;;;;;27.00;12.02;;;;;;;;;;5032845;28;20033;-65
2023/01/05 14:45:57;;;;;;;27.60;12.45;;;;;;;;;;5033992;28;20398;-65
2023/01/05 14:48:39;;;;;;;25.25;11.68;;;;;;;;;;5032163;28;20026;-64
2023/01/05 14:51:08;;;;;;;27.13;11.95;;;;;;;;;;5031834;28;20033;-64
2023/01/05 14:53:45;;;;;;;32.75;12.73;;;;;;;;;;5032690;28;20075;-65
2023/01/05 14:56:19;;;;;;;23.83;12.15;;;;;;;;;;5030288;28;20026;-64
2023/01/05 14:58:46;;;;;;;35.17;12.00;;;;;;;;;;5030327;28;20029;-64
2023/01/05 15:01:15;;;;;;;32.40;12.00;;;;;;;;;;5032409;28;20379;-64